sensor_id;sensor_type;location;lat;lon;timestamp;temperature;humidity
21035;DHT22;10676;50.848;3.272;2023-04-07T00:02:06;10.30;99.90
21035;DHT22;10676;50.848;3.272;2023-04-07T00:04:32;10.40;99.90
21035;DHT22;10676;50.848;3.272;2023-04-07T00:06:57;10.40;99.90
21035;DHT22;10676;50.848;3.272;2023-04-07T00:09:23;10.40;99.90
21035;DHT22;10676;50.848;3.272;2023-04-07T00:11:49;10.40;99.90
21035;DHT22;10676;50.848;3.272;2023-04-07T00:14:15;10.40;99.90
21035;DHT22;10676;50.848;3.272;2023-04-07T00:16:41;10.40;99.90
21035;DHT22;10676;50.848;3.272;2023-04-07T00:19:06;10.30;99.90
21035;DHT22;10676;50.848;3.272;2023-04-07T00:21:32;10.30;99.90
21035;DHT22;10676;50.848;3.272;2023-04-07T00:23:58;10.30;99.90
21035;DHT22;10676;50.848;3.272;2023-04-07T00:26:23;10.30;99.90
21035;DHT22;10676;50.848;3.272;2023-04-07T00:28:51;10.30;99.90
21035;DHT22;10676;50.848;3.272;2023-04-07T00:31:17;10.30;99.90
21035;DHT22;10676;50.848;3.272;2023-04-07T00:33:42;10.30;99.90
21035;DHT22;10676;50.848;3.272;2023-04-07T00:36:08;10.10;99.90
21035;DHT22;10676;50.848;3.272;2023-04-07T00:38:34;10.20;99.90
21035;DHT22;10676;50.848;3.272;2023-04-07T00:40:59;10.10;99.90
21035;DHT22;10676;50.848;3.272;2023-04-07T00:43:26;10.10;99.90
21035;DHT22;10676;50.848;3.272;2023-04-07T00:45:52;10.10;99.90
21035;DHT22;10676;50.848;3.272;2023-04-07T00:48:18;10.10;99.90
21035;DHT22;10676;50.848;3.272;2023-04-07T00:50:44;10.10;99.90
21035;DHT22;10676;50.848;3.272;2023-04-07T00:53:11;10.00;99.90
21035;DHT22;10676;50.848;3.272;2023-04-07T00:55:37;10.00;99.90
21035;DHT22;10676;50.848;3.272;2023-04-07T00:58:02;10.00;99.90
21035;DHT22;10676;50.848;3.272;2023-04-07T01:00:35;10.00;99.90
21035;DHT22;10676;50.848;3.272;2023-04-07T01:03:08;10.00;99.90
21035;DHT22;10676;50.848;3.272;2023-04-07T01:05:53;10.00;99.90
21035;DHT22;10676;50.848;3.272;2023-04-07T01:11:02;9.90;99.90
21035;DHT22;10676;50.848;3.272;2023-04-07T01:13:49;9.90;99.90
21035;DHT22;10676;50.848;3.272;2023-04-07T01:16:36;9.80;99.90
21035;DHT22;10676;50.848;3.272;2023-04-07T01:21:43;9.80;99.90
21035;DHT22;10676;50.848;3.272;2023-04-07T01:30:10;9.70;99.90
21035;DHT22;10676;50.848;3.272;2023-04-07T01:32:38;9.70;99.90
21035;DHT22;10676;50.848;3.272;2023-04-07T01:35:06;9.60;99.90
21035;DHT22;10676;50.848;3.272;2023-04-07T01:37:35;9.60;99.90
21035;DHT22;10676;50.848;3.272;2023-04-07T01:40:03;9.60;99.90
21035;DHT22;10676;50.848;3.272;2023-04-07T01:42:30;9.60;99.90
21035;DHT22;10676;50.848;3.272;2023-04-07T01:44:58;9.60;99.90
21035;DHT22;10676;50.848;3.272;2023-04-07T01:47:27;9.60;99.90
21035;DHT22;10676;50.848;3.272;2023-04-07T01:49:57;9.60;99.90
21035;DHT22;10676;50.848;3.272;2023-04-07T01:52:23;9.60;99.90
21035;DHT22;10676;50.848;3.272;2023-04-07T01:54:50;9.60;99.90
21035;DHT22;10676;50.848;3.272;2023-04-07T01:57:15;9.60;99.90
21035;DHT22;10676;50.848;3.272;2023-04-07T01:59:41;9.50;99.90
21035;DHT22;10676;50.848;3.272;2023-04-07T02:02:07;9.50;99.90
21035;DHT22;10676;50.848;3.272;2023-04-07T02:07:02;9.50;99.90
21035;DHT22;10676;50.848;3.272;2023-04-07T02:09:31;9.50;99.90
21035;DHT22;10676;50.848;3.272;2023-04-07T02:11:59;9.50;99.90
21035;DHT22;10676;50.848;3.272;2023-04-07T02:14:27;9.50;99.90
21035;DHT22;10676;50.848;3.272;2023-04-07T02:16:54;9.40;99.90
21035;DHT22;10676;50.848;3.272;2023-04-07T02:19:20;9.40;99.90
21035;DHT22;10676;50.848;3.272;2023-04-07T02:21:47;9.40;99.90
21035;DHT22;10676;50.848;3.272;2023-04-07T02:24:18;9.40;99.90
21035;DHT22;10676;50.848;3.272;2023-04-07T02:26:45;9.40;99.90
21035;DHT22;10676;50.848;3.272;2023-04-07T02:29:12;9.30;99.90
21035;DHT22;10676;50.848;3.272;2023-04-07T02:31:37;9.30;99.90
21035;DHT22;10676;50.848;3.272;2023-04-07T02:34:03;9.30;99.90
21035;DHT22;10676;50.848;3.272;2023-04-07T02:36:29;9.20;99.90
21035;DHT22;10676;50.848;3.272;2023-04-07T02:38:55;9.20;99.90
21035;DHT22;10676;50.848;3.272;2023-04-07T02:41:21;9.20;99.90
21035;DHT22;10676;50.848;3.272;2023-04-07T02:43:47;9.10;99.90
21035;DHT22;10676;50.848;3.272;2023-04-07T02:46:13;9.10;99.90
21035;DHT22;10676;50.848;3.272;2023-04-07T02:48:38;9.00;99.90
21035;DHT22;10676;50.848;3.272;2023-04-07T02:51:04;8.90;99.90
21035;DHT22;10676;50.848;3.272;2023-04-07T02:53:30;8.90;99.90
21035;DHT22;10676;50.848;3.272;2023-04-07T02:55:55;8.80;99.90
21035;DHT22;10676;50.848;3.272;2023-04-07T02:58:21;8.80;99.90
21035;DHT22;10676;50.848;3.272;2023-04-07T03:00:49;8.70;99.90
21035;DHT22;10676;50.848;3.272;2023-04-07T03:03:15;8.60;99.90
21035;DHT22;10676;50.848;3.272;2023-04-07T03:05:41;8.60;99.90
21035;DHT22;10676;50.848;3.272;2023-04-07T03:08:06;8.50;99.90
21035;DHT22;10676;50.848;3.272;2023-04-07T03:10:32;8.50;99.90
21035;DHT22;10676;50.848;3.272;2023-04-07T03:12:58;8.40;99.90
21035;DHT22;10676;50.848;3.272;2023-04-07T03:15:23;8.40;99.90
21035;DHT22;10676;50.848;3.272;2023-04-07T03:17:49;8.30;99.90
21035;DHT22;10676;50.848;3.272;2023-04-07T03:20:14;8.30;99.90
21035;DHT22;10676;50.848;3.272;2023-04-07T03:22:41;8.20;99.90
21035;DHT22;10676;50.848;3.272;2023-04-07T03:25:07;8.20;99.90
21035;DHT22;10676;50.848;3.272;2023-04-07T03:27:33;8.10;99.90
21035;DHT22;10676;50.848;3.272;2023-04-07T03:29:58;8.10;99.90
21035;DHT22;10676;50.848;3.272;2023-04-07T03:32:24;8.10;99.90
21035;DHT22;10676;50.848;3.272;2023-04-07T03:34:49;8.00;99.90
21035;DHT22;10676;50.848;3.272;2023-04-07T03:37:15;8.00;99.90
21035;DHT22;10676;50.848;3.272;2023-04-07T03:39:41;8.00;99.90
21035;DHT22;10676;50.848;3.272;2023-04-07T03:42:06;8.00;99.90
21035;DHT22;10676;50.848;3.272;2023-04-07T03:44:32;8.00;99.90
21035;DHT22;10676;50.848;3.272;2023-04-07T03:46:59;7.90;99.90
21035;DHT22;10676;50.848;3.272;2023-04-07T03:49:24;7.90;99.90
21035;DHT22;10676;50.848;3.272;2023-04-07T03:51:50;7.90;99.90
21035;DHT22;10676;50.848;3.272;2023-04-07T03:54:15;7.90;99.90
21035;DHT22;10676;50.848;3.272;2023-04-07T03:56:41;7.90;99.90
21035;DHT22;10676;50.848;3.272;2023-04-07T03:59:07;7.90;99.90
21035;DHT22;10676;50.848;3.272;2023-04-07T04:01:33;7.90;99.90
21035;DHT22;10676;50.848;3.272;2023-04-07T04:03:58;7.80;99.90
21035;DHT22;10676;50.848;3.272;2023-04-07T04:06:24;7.80;99.90
21035;DHT22;10676;50.848;3.272;2023-04-07T04:08:51;7.80;99.90
21035;DHT22;10676;50.848;3.272;2023-04-07T04:11:17;7.70;99.90
21035;DHT22;10676;50.848;3.272;2023-04-07T04:13:42;7.70;99.90
21035;DHT22;10676;50.848;3.272;2023-04-07T04:16:08;7.70;99.90
21035;DHT22;10676;50.848;3.272;2023-04-07T04:18:34;7.60;99.90
21035;DHT22;10676;50.848;3.272;2023-04-07T04:20:59;7.60;99.90
21035;DHT22;10676;50.848;3.272;2023-04-07T04:23:25;7.60;99.90
21035;DHT22;10676;50.848;3.272;2023-04-07T04:25:51;7.50;99.90
21035;DHT22;10676;50.848;3.272;2023-04-07T04:28:17;7.50;99.90
21035;DHT22;10676;50.848;3.272;2023-04-07T04:30:42;7.50;99.90
21035;DHT22;10676;50.848;3.272;2023-04-07T04:33:08;7.50;99.90
21035;DHT22;10676;50.848;3.272;2023-04-07T04:35:33;7.40;99.90
21035;DHT22;10676;50.848;3.272;2023-04-07T04:37:59;7.40;99.90
21035;DHT22;10676;50.848;3.272;2023-04-07T04:40:25;7.30;99.90
21035;DHT22;10676;50.848;3.272;2023-04-07T04:42:50;7.20;99.90
21035;DHT22;10676;50.848;3.272;2023-04-07T04:45:16;7.20;99.90
21035;DHT22;10676;50.848;3.272;2023-04-07T04:47:42;7.10;99.90
21035;DHT22;10676;50.848;3.272;2023-04-07T04:50:09;7.00;99.90
21035;DHT22;10676;50.848;3.272;2023-04-07T04:52:35;7.00;99.90
21035;DHT22;10676;50.848;3.272;2023-04-07T04:55:00;7.00;99.90
21035;DHT22;10676;50.848;3.272;2023-04-07T04:57:26;7.00;99.90
21035;DHT22;10676;50.848;3.272;2023-04-07T04:59:52;7.00;99.90
21035;DHT22;10676;50.848;3.272;2023-04-07T05:02:17;6.90;99.90
21035;DHT22;10676;50.848;3.272;2023-04-07T05:04:43;6.80;99.90
21035;DHT22;10676;50.848;3.272;2023-04-07T05:07:08;6.80;99.90
21035;DHT22;10676;50.848;3.272;2023-04-07T05:09:34;6.80;99.90
21035;DHT22;10676;50.848;3.272;2023-04-07T05:12:00;6.70;99.90
21035;DHT22;10676;50.848;3.272;2023-04-07T05:14:27;6.70;99.90
21035;DHT22;10676;50.848;3.272;2023-04-07T05:16:52;6.80;99.90
21035;DHT22;10676;50.848;3.272;2023-04-07T05:19:19;6.70;99.90
21035;DHT22;10676;50.848;3.272;2023-04-07T05:21:44;6.70;99.90
21035;DHT22;10676;50.848;3.272;2023-04-07T05:24:10;6.70;99.90
21035;DHT22;10676;50.848;3.272;2023-04-07T05:26:36;6.70;99.90
21035;DHT22;10676;50.848;3.272;2023-04-07T05:29:01;6.70;99.90
21035;DHT22;10676;50.848;3.272;2023-04-07T05:31:27;6.70;99.90
21035;DHT22;10676;50.848;3.272;2023-04-07T05:33:52;6.80;99.90
21035;DHT22;10676;50.848;3.272;2023-04-07T05:36:18;6.90;99.90
21035;DHT22;10676;50.848;3.272;2023-04-07T05:38:44;7.00;99.90
21035;DHT22;10676;50.848;3.272;2023-04-07T05:41:10;7.30;99.90
21035;DHT22;10676;50.848;3.272;2023-04-07T05:43:35;7.60;99.90
21035;DHT22;10676;50.848;3.272;2023-04-07T05:46:01;8.00;99.90
21035;DHT22;10676;50.848;3.272;2023-04-07T05:48:26;8.30;99.90
21035;DHT22;10676;50.848;3.272;2023-04-07T05:50:52;8.50;99.90
21035;DHT22;10676;50.848;3.272;2023-04-07T05:53:18;8.60;99.90
21035;DHT22;10676;50.848;3.272;2023-04-07T05:55:43;8.60;99.90
21035;DHT22;10676;50.848;3.272;2023-04-07T05:58:09;8.40;99.90
21035;DHT22;10676;50.848;3.272;2023-04-07T06:00:35;8.30;99.90
21035;DHT22;10676;50.848;3.272;2023-04-07T06:03:01;8.20;99.90
21035;DHT22;10676;50.848;3.272;2023-04-07T06:05:27;8.10;99.90
21035;DHT22;10676;50.848;3.272;2023-04-07T06:07:53;8.00;99.90
21035;DHT22;10676;50.848;3.272;2023-04-07T06:10:19;8.00;99.90
21035;DHT22;10676;50.848;3.272;2023-04-07T06:12:45;8.10;99.90
21035;DHT22;10676;50.848;3.272;2023-04-07T06:15:10;8.10;99.90
21035;DHT22;10676;50.848;3.272;2023-04-07T06:17:36;8.10;99.90
21035;DHT22;10676;50.848;3.272;2023-04-07T06:20:02;8.20;99.90
21035;DHT22;10676;50.848;3.272;2023-04-07T06:22:27;8.30;99.90
21035;DHT22;10676;50.848;3.272;2023-04-07T06:24:53;8.40;99.90
21035;DHT22;10676;50.848;3.272;2023-04-07T06:27:20;8.40;99.90
21035;DHT22;10676;50.848;3.272;2023-04-07T06:29:46;8.50;99.90
21035;DHT22;10676;50.848;3.272;2023-04-07T06:32:12;8.60;99.90
21035;DHT22;10676;50.848;3.272;2023-04-07T06:34:38;8.70;99.90
21035;DHT22;10676;50.848;3.272;2023-04-07T06:37:03;8.80;99.90
21035;DHT22;10676;50.848;3.272;2023-04-07T06:39:31;9.10;99.90
21035;DHT22;10676;50.848;3.272;2023-04-07T06:41:56;9.40;99.90
21035;DHT22;10676;50.848;3.272;2023-04-07T06:44:22;9.80;99.90
21035;DHT22;10676;50.848;3.272;2023-04-07T06:46:48;10.10;99.90
21035;DHT22;10676;50.848;3.272;2023-04-07T06:49:20;10.50;99.90
21035;DHT22;10676;50.848;3.272;2023-04-07T06:51:46;11.00;99.90
21035;DHT22;10676;50.848;3.272;2023-04-07T06:54:12;11.60;99.90
21035;DHT22;10676;50.848;3.272;2023-04-07T06:56:39;12.30;99.90
21035;DHT22;10676;50.848;3.272;2023-04-07T06:59:05;13.00;99.90
21035;DHT22;10676;50.848;3.272;2023-04-07T07:01:31;14.10;99.90
21035;DHT22;10676;50.848;3.272;2023-04-07T07:03:57;15.10;99.90
21035;DHT22;10676;50.848;3.272;2023-04-07T07:06:22;15.40;99.90
21035;DHT22;10676;50.848;3.272;2023-04-07T07:08:48;15.70;99.90
21035;DHT22;10676;50.848;3.272;2023-04-07T07:11:14;16.50;99.90
21035;DHT22;10676;50.848;3.272;2023-04-07T07:13:39;17.60;99.90
21035;DHT22;10676;50.848;3.272;2023-04-07T07:16:05;18.40;99.90
21035;DHT22;10676;50.848;3.272;2023-04-07T07:18:31;18.80;99.90
21035;DHT22;10676;50.848;3.272;2023-04-07T07:20:56;19.20;99.90
21035;DHT22;10676;50.848;3.272;2023-04-07T07:23:22;19.80;99.90
21035;DHT22;10676;50.848;3.272;2023-04-07T07:25:47;20.70;99.90
21035;DHT22;10676;50.848;3.272;2023-04-07T07:28:13;21.60;99.90
21035;DHT22;10676;50.848;3.272;2023-04-07T07:30:39;22.40;99.90
21035;DHT22;10676;50.848;3.272;2023-04-07T07:33:06;22.50;99.90
21035;DHT22;10676;50.848;3.272;2023-04-07T07:35:31;22.00;99.90
21035;DHT22;10676;50.848;3.272;2023-04-07T07:37:57;21.20;99.90
21035;DHT22;10676;50.848;3.272;2023-04-07T07:40:23;20.00;99.90
21035;DHT22;10676;50.848;3.272;2023-04-07T07:42:48;19.20;99.90
21035;DHT22;10676;50.848;3.272;2023-04-07T07:45:14;18.40;99.90
21035;DHT22;10676;50.848;3.272;2023-04-07T07:47:40;17.70;99.90
21035;DHT22;10676;50.848;3.272;2023-04-07T07:50:06;17.20;99.90
21035;DHT22;10676;50.848;3.272;2023-04-07T07:52:32;16.70;99.90
21035;DHT22;10676;50.848;3.272;2023-04-07T07:54:57;16.30;99.90
21035;DHT22;10676;50.848;3.272;2023-04-07T07:57:23;16.00;99.90
21035;DHT22;10676;50.848;3.272;2023-04-07T07:59:49;15.80;99.90
21035;DHT22;10676;50.848;3.272;2023-04-07T08:02:14;15.50;99.90
21035;DHT22;10676;50.848;3.272;2023-04-07T08:04:40;15.40;99.90
21035;DHT22;10676;50.848;3.272;2023-04-07T08:07:06;15.20;99.90
21035;DHT22;10676;50.848;3.272;2023-04-07T08:09:31;15.10;99.90
21035;DHT22;10676;50.848;3.272;2023-04-07T08:11:57;15.00;99.90
21035;DHT22;10676;50.848;3.272;2023-04-07T08:14:23;15.00;99.90
21035;DHT22;10676;50.848;3.272;2023-04-07T08:16:49;14.90;99.90
21035;DHT22;10676;50.848;3.272;2023-04-07T08:19:14;14.80;99.90
21035;DHT22;10676;50.848;3.272;2023-04-07T08:21:40;14.70;99.90
21035;DHT22;10676;50.848;3.272;2023-04-07T08:24:07;14.60;99.90
21035;DHT22;10676;50.848;3.272;2023-04-07T08:26:33;14.50;99.90
21035;DHT22;10676;50.848;3.272;2023-04-07T08:28:59;14.40;99.90
21035;DHT22;10676;50.848;3.272;2023-04-07T08:31:24;14.50;99.90
21035;DHT22;10676;50.848;3.272;2023-04-07T08:33:50;14.50;99.90
21035;DHT22;10676;50.848;3.272;2023-04-07T08:36:23;14.70;99.90
21035;DHT22;10676;50.848;3.272;2023-04-07T08:38:48;14.90;99.90
21035;DHT22;10676;50.848;3.272;2023-04-07T08:41:20;15.10;99.90
21035;DHT22;10676;50.848;3.272;2023-04-07T08:43:49;15.40;99.90
21035;DHT22;10676;50.848;3.272;2023-04-07T08:46:19;15.70;99.90
21035;DHT22;10676;50.848;3.272;2023-04-07T08:48:50;15.90;99.90
21035;DHT22;10676;50.848;3.272;2023-04-07T08:51:30;15.90;99.90
21035;DHT22;10676;50.848;3.272;2023-04-07T08:54:04;15.90;99.90
21035;DHT22;10676;50.848;3.272;2023-04-07T08:56:32;16.00;99.90
21035;DHT22;10676;50.848;3.272;2023-04-07T08:59:02;16.50;99.90
21035;DHT22;10676;50.848;3.272;2023-04-07T09:01:30;17.30;99.90
21035;DHT22;10676;50.848;3.272;2023-04-07T09:03:56;17.80;99.90
21035;DHT22;10676;50.848;3.272;2023-04-07T09:06:23;17.90;99.90
21035;DHT22;10676;50.848;3.272;2023-04-07T09:08:49;17.60;99.90
21035;DHT22;10676;50.848;3.272;2023-04-07T09:11:14;17.20;99.90
21035;DHT22;10676;50.848;3.272;2023-04-07T09:13:40;16.60;99.90
21035;DHT22;10676;50.848;3.272;2023-04-07T09:16:06;16.00;99.90
21035;DHT22;10676;50.848;3.272;2023-04-07T09:18:32;15.40;99.90
21035;DHT22;10676;50.848;3.272;2023-04-07T09:21:03;14.90;99.90
21035;DHT22;10676;50.848;3.272;2023-04-07T09:23:32;14.50;99.90
21035;DHT22;10676;50.848;3.272;2023-04-07T09:25:59;14.10;99.90
21035;DHT22;10676;50.848;3.272;2023-04-07T09:28:38;13.90;99.90
21035;DHT22;10676;50.848;3.272;2023-04-07T09:31:05;13.80;99.90
21035;DHT22;10676;50.848;3.272;2023-04-07T09:33:32;13.80;99.90
21035;DHT22;10676;50.848;3.272;2023-04-07T09:35:58;13.80;99.90
21035;DHT22;10676;50.848;3.272;2023-04-07T09:38:32;13.80;99.90
21035;DHT22;10676;50.848;3.272;2023-04-07T09:41:06;13.90;99.90
21035;DHT22;10676;50.848;3.272;2023-04-07T09:43:40;14.30;99.90
21035;DHT22;10676;50.848;3.272;2023-04-07T09:46:07;15.40;99.90
21035;DHT22;10676;50.848;3.272;2023-04-07T09:48:33;17.10;99.90
21035;DHT22;10676;50.848;3.272;2023-04-07T09:51:11;18.90;99.90
21035;DHT22;10676;50.848;3.272;2023-04-07T09:53:50;20.20;99.90
21035;DHT22;10676;50.848;3.272;2023-04-07T09:56:18;20.70;99.90
21035;DHT22;10676;50.848;3.272;2023-04-07T09:58:48;20.10;99.90
21035;DHT22;10676;50.848;3.272;2023-04-07T10:01:16;18.90;99.90
21035;DHT22;10676;50.848;3.272;2023-04-07T10:03:43;17.40;99.90
21035;DHT22;10676;50.848;3.272;2023-04-07T10:06:09;16.20;99.90
21035;DHT22;10676;50.848;3.272;2023-04-07T10:08:37;15.40;99.90
21035;DHT22;10676;50.848;3.272;2023-04-07T10:11:04;14.70;99.90
21035;DHT22;10676;50.848;3.272;2023-04-07T10:13:32;14.40;99.90
21035;DHT22;10676;50.848;3.272;2023-04-07T10:15:59;15.10;99.90
21035;DHT22;10676;50.848;3.272;2023-04-07T10:18:31;16.00;99.90
21035;DHT22;10676;50.848;3.272;2023-04-07T10:21:00;16.70;99.90
21035;DHT22;10676;50.848;3.272;2023-04-07T10:26:26;16.50;99.90
21035;DHT22;10676;50.848;3.272;2023-04-07T10:29:01;15.70;99.90
21035;DHT22;10676;50.848;3.272;2023-04-07T10:31:29;15.00;99.90
21035;DHT22;10676;50.848;3.272;2023-04-07T10:33:55;14.40;99.90
21035;DHT22;10676;50.848;3.272;2023-04-07T10:36:22;13.90;99.90
21035;DHT22;10676;50.848;3.272;2023-04-07T10:44:01;13.30;99.90
21035;DHT22;10676;50.848;3.272;2023-04-07T10:49:17;14.20;99.90
21035;DHT22;10676;50.848;3.272;2023-04-07T10:51:43;15.20;99.90
21035;DHT22;10676;50.848;3.272;2023-04-07T10:54:18;16.30;99.90
21035;DHT22;10676;50.848;3.272;2023-04-07T10:57:17;17.60;99.90
21035;DHT22;10676;50.848;3.272;2023-04-07T11:02:38;20.10;99.90
21035;DHT22;10676;50.848;3.272;2023-04-07T11:05:04;20.40;99.90
21035;DHT22;10676;50.848;3.272;2023-04-07T11:07:45;20.30;99.90
21035;DHT22;10676;50.848;3.272;2023-04-07T11:10:22;20.10;99.90
21035;DHT22;10676;50.848;3.272;2023-04-07T11:13:05;19.60;99.90
21035;DHT22;10676;50.848;3.272;2023-04-07T11:15:31;19.00;99.90
21035;DHT22;10676;50.848;3.272;2023-04-07T11:18:16;18.40;99.90
21035;DHT22;10676;50.848;3.272;2023-04-07T11:23:18;17.60;99.90
21035;DHT22;10676;50.848;3.272;2023-04-07T11:25:49;17.50;99.90
21035;DHT22;10676;50.848;3.272;2023-04-07T11:28:18;17.50;99.90
21035;DHT22;10676;50.848;3.272;2023-04-07T11:30:52;17.50;99.90
21035;DHT22;10676;50.848;3.272;2023-04-07T11:33:25;17.40;99.90
21035;DHT22;10676;50.848;3.272;2023-04-07T11:35:59;17.20;99.90
21035;DHT22;10676;50.848;3.272;2023-04-07T11:38:34;17.00;99.90
21035;DHT22;10676;50.848;3.272;2023-04-07T11:41:17;16.90;99.90
21035;DHT22;10676;50.848;3.272;2023-04-07T11:43:43;17.00;99.90
21035;DHT22;10676;50.848;3.272;2023-04-07T11:46:11;17.30;99.90
21035;DHT22;10676;50.848;3.272;2023-04-07T11:48:39;17.80;99.90
21035;DHT22;10676;50.848;3.272;2023-04-07T11:51:05;18.20;99.90
21035;DHT22;10676;50.848;3.272;2023-04-07T11:53:34;18.70;99.90
21035;DHT22;10676;50.848;3.272;2023-04-07T11:56:08;19.10;99.90
21035;DHT22;10676;50.848;3.272;2023-04-07T11:58:37;19.40;99.90
21035;DHT22;10676;50.848;3.272;2023-04-07T12:01:05;19.60;99.90
21035;DHT22;10676;50.848;3.272;2023-04-07T12:03:36;19.80;99.90
21035;DHT22;10676;50.848;3.272;2023-04-07T12:06:03;20.10;99.90
21035;DHT22;10676;50.848;3.272;2023-04-07T12:08:42;20.30;99.90
21035;DHT22;10676;50.848;3.272;2023-04-07T12:11:09;20.30;99.90
21035;DHT22;10676;50.848;3.272;2023-04-07T12:13:36;20.00;99.90
21035;DHT22;10676;50.848;3.272;2023-04-07T12:16:02;19.60;99.90
21035;DHT22;10676;50.848;3.272;2023-04-07T12:18:28;19.20;99.90
21035;DHT22;10676;50.848;3.272;2023-04-07T12:20:54;18.60;99.90
21035;DHT22;10676;50.848;3.272;2023-04-07T12:23:21;18.10;99.90
21035;DHT22;10676;50.848;3.272;2023-04-07T12:25:47;17.60;99.90
21035;DHT22;10676;50.848;3.272;2023-04-07T12:28:13;17.00;99.90
21035;DHT22;10676;50.848;3.272;2023-04-07T12:30:39;16.60;99.90
21035;DHT22;10676;50.848;3.272;2023-04-07T12:33:05;16.20;99.90
21035;DHT22;10676;50.848;3.272;2023-04-07T12:35:30;16.00;99.90
21035;DHT22;10676;50.848;3.272;2023-04-07T12:37:57;16.00;99.90
21035;DHT22;10676;50.848;3.272;2023-04-07T12:40:23;15.90;99.90
21035;DHT22;10676;50.848;3.272;2023-04-07T12:42:51;16.10;99.90
21035;DHT22;10676;50.848;3.272;2023-04-07T12:45:17;16.10;99.90
21035;DHT22;10676;50.848;3.272;2023-04-07T12:47:47;16.20;99.90
21035;DHT22;10676;50.848;3.272;2023-04-07T12:50:13;16.40;99.90
21035;DHT22;10676;50.848;3.272;2023-04-07T12:52:38;16.70;99.90
21035;DHT22;10676;50.848;3.272;2023-04-07T12:55:04;17.00;99.90
21035;DHT22;10676;50.848;3.272;2023-04-07T12:57:30;17.20;99.90
21035;DHT22;10676;50.848;3.272;2023-04-07T12:59:57;17.20;99.90
21035;DHT22;10676;50.848;3.272;2023-04-07T13:02:22;17.30;99.90
21035;DHT22;10676;50.848;3.272;2023-04-07T13:04:48;17.30;99.90
21035;DHT22;10676;50.848;3.272;2023-04-07T13:07:14;17.40;99.90
21035;DHT22;10676;50.848;3.272;2023-04-07T13:09:41;17.40;99.90
21035;DHT22;10676;50.848;3.272;2023-04-07T13:12:10;17.50;99.90
21035;DHT22;10676;50.848;3.272;2023-04-07T13:14:40;17.70;99.90
21035;DHT22;10676;50.848;3.272;2023-04-07T13:17:06;17.90;99.90
21035;DHT22;10676;50.848;3.272;2023-04-07T13:19:32;18.00;99.90
21035;DHT22;10676;50.848;3.272;2023-04-07T13:21:58;18.10;99.90
21035;DHT22;10676;50.848;3.272;2023-04-07T13:24:24;18.10;99.90
21035;DHT22;10676;50.848;3.272;2023-04-07T13:26:51;18.00;99.90
21035;DHT22;10676;50.848;3.272;2023-04-07T13:29:17;17.90;99.90
21035;DHT22;10676;50.848;3.272;2023-04-07T13:31:46;17.70;99.90
21035;DHT22;10676;50.848;3.272;2023-04-07T13:34:13;17.40;99.90
21035;DHT22;10676;50.848;3.272;2023-04-07T13:36:40;17.10;99.90
21035;DHT22;10676;50.848;3.272;2023-04-07T13:39:08;16.70;99.90
21035;DHT22;10676;50.848;3.272;2023-04-07T13:41:34;16.40;99.90
21035;DHT22;10676;50.848;3.272;2023-04-07T13:43:59;16.20;99.90
21035;DHT22;10676;50.848;3.272;2023-04-07T13:46:27;15.90;99.90
21035;DHT22;10676;50.848;3.272;2023-04-07T13:48:53;15.70;99.90
21035;DHT22;10676;50.848;3.272;2023-04-07T13:51:18;15.40;99.90
21035;DHT22;10676;50.848;3.272;2023-04-07T13:53:44;15.30;99.90
21035;DHT22;10676;50.848;3.272;2023-04-07T13:56:10;15.20;99.90
21035;DHT22;10676;50.848;3.272;2023-04-07T13:58:36;15.00;99.90
21035;DHT22;10676;50.848;3.272;2023-04-07T14:01:03;14.90;99.90
21035;DHT22;10676;50.848;3.272;2023-04-07T14:03:29;14.70;99.90
21035;DHT22;10676;50.848;3.272;2023-04-07T14:05:54;14.60;99.90
21035;DHT22;10676;50.848;3.272;2023-04-07T14:08:26;14.50;99.90
21035;DHT22;10676;50.848;3.272;2023-04-07T14:10:51;14.50;99.90
21035;DHT22;10676;50.848;3.272;2023-04-07T14:13:17;14.50;99.90
21035;DHT22;10676;50.848;3.272;2023-04-07T14:15:43;14.50;99.90
21035;DHT22;10676;50.848;3.272;2023-04-07T14:18:08;14.50;99.90
21035;DHT22;10676;50.848;3.272;2023-04-07T14:20:34;14.60;99.90
21035;DHT22;10676;50.848;3.272;2023-04-07T14:23:00;14.50;99.90
21035;DHT22;10676;50.848;3.272;2023-04-07T14:25:26;14.40;99.90
21035;DHT22;10676;50.848;3.272;2023-04-07T14:27:51;14.20;99.90
21035;DHT22;10676;50.848;3.272;2023-04-07T14:30:17;14.10;99.90
21035;DHT22;10676;50.848;3.272;2023-04-07T14:32:43;13.90;99.90
21035;DHT22;10676;50.848;3.272;2023-04-07T14:35:09;13.70;99.90
21035;DHT22;10676;50.848;3.272;2023-04-07T14:37:35;13.50;99.90
21035;DHT22;10676;50.848;3.272;2023-04-07T14:40:02;13.40;99.90
21035;DHT22;10676;50.848;3.272;2023-04-07T14:42:31;13.30;99.90
21035;DHT22;10676;50.848;3.272;2023-04-07T14:44:58;13.20;99.90
21035;DHT22;10676;50.848;3.272;2023-04-07T14:47:24;13.20;99.90
21035;DHT22;10676;50.848;3.272;2023-04-07T14:49:51;13.30;99.90
21035;DHT22;10676;50.848;3.272;2023-04-07T14:52:17;13.40;99.90
21035;DHT22;10676;50.848;3.272;2023-04-07T14:54:42;13.50;99.90
21035;DHT22;10676;50.848;3.272;2023-04-07T14:57:08;13.60;99.90
21035;DHT22;10676;50.848;3.272;2023-04-07T14:59:34;13.50;99.90
21035;DHT22;10676;50.848;3.272;2023-04-07T15:01:59;13.50;99.90
21035;DHT22;10676;50.848;3.272;2023-04-07T15:04:25;13.40;99.90
21035;DHT22;10676;50.848;3.272;2023-04-07T15:06:51;13.20;99.90
21035;DHT22;10676;50.848;3.272;2023-04-07T15:09:16;13.10;99.90
21035;DHT22;10676;50.848;3.272;2023-04-07T15:11:43;13.00;99.90
21035;DHT22;10676;50.848;3.272;2023-04-07T15:14:10;13.00;99.90
21035;DHT22;10676;50.848;3.272;2023-04-07T15:16:36;13.10;99.90
21035;DHT22;10676;50.848;3.272;2023-04-07T15:19:02;13.30;99.90
21035;DHT22;10676;50.848;3.272;2023-04-07T15:21:27;13.40;99.90
21035;DHT22;10676;50.848;3.272;2023-04-07T15:23:53;13.60;99.90
21035;DHT22;10676;50.848;3.272;2023-04-07T15:26:19;13.60;99.90
21035;DHT22;10676;50.848;3.272;2023-04-07T15:28:45;13.50;99.90
21035;DHT22;10676;50.848;3.272;2023-04-07T15:31:11;13.40;99.90
21035;DHT22;10676;50.848;3.272;2023-04-07T15:33:38;13.20;99.90
21035;DHT22;10676;50.848;3.272;2023-04-07T15:36:05;13.10;99.90
21035;DHT22;10676;50.848;3.272;2023-04-07T15:38:31;13.00;99.90
21035;DHT22;10676;50.848;3.272;2023-04-07T15:40:56;12.90;99.90
21035;DHT22;10676;50.848;3.272;2023-04-07T15:43:23;12.90;99.90
21035;DHT22;10676;50.848;3.272;2023-04-07T15:45:48;12.90;99.90
21035;DHT22;10676;50.848;3.272;2023-04-07T15:48:15;13.00;99.90
21035;DHT22;10676;50.848;3.272;2023-04-07T15:50:41;13.00;99.90
21035;DHT22;10676;50.848;3.272;2023-04-07T15:53:06;13.10;99.90
21035;DHT22;10676;50.848;3.272;2023-04-07T15:55:33;13.20;99.90
21035;DHT22;10676;50.848;3.272;2023-04-07T15:58:00;13.30;99.90
21035;DHT22;10676;50.848;3.272;2023-04-07T16:00:27;13.30;99.90
21035;DHT22;10676;50.848;3.272;2023-04-07T16:02:54;13.20;99.90
21035;DHT22;10676;50.848;3.272;2023-04-07T16:05:19;13.10;99.90